Terminal Aerodrome Forecast
Issued by NWS

Home | Current Version | Previous Version | Text Only | Print | Product List | Glossary On
Versions: 1 2 3 4 5 6 7 8 9 10 11 12 13 14 15 16
000
FTUS43 KBIS 231727
TAFJMS
TAF
KJMS 231727Z 2318/2418 36012G20KT P6SM BKN020 OVC030
     FM232200 03010KT P6SM BKN025 OVC045
     FM240200 03007KT P6SM RA BKN020 OVC030
     FM240600 02010KT 6SM SHRA BKN008 OVC015=

USA.gov is the U.S. government's official web portal to all federal, state and local government web resources and services.